Time;durP1;ratioP1;P1;durP2;ratioP2;P2;SDS_P1;SDS_P2;PMS_P1;PMS_P2;Temp;Humidity;BMP_temperature;BMP_pressure;BME280_temperature;BME280_humidity;BME280_pressure;Samples;Min_cycle;Max_cycle;Signal;HPM_P1;HPM_P2
2023/07/02 00:02:19;;;;;;;5.03;3.83;;;;;;;17.42;100.00;98482.88;5112516;28;20215;-75
2023/07/02 00:04:46;;;;;;;4.70;3.70;;;;;;;17.37;100.00;98477.53;5111323;28;20583;-76
2023/07/02 00:07:14;;;;;;;3.97;3.40;;;;;;;17.37;100.00;98480.22;5112657;28;20249;-76
2023/07/02 00:09:41;;;;;;;3.30;3.00;;;;;;;17.44;100.00;98477.97;5112493;28;20661;-75
2023/07/02 00:12:08;;;;;;;4.67;3.37;;;;;;;17.59;100.00;98474.25;5111250;28;20192;-76
2023/07/02 00:14:35;;;;;;;3.40;3.10;;;;;;;17.58;100.00;98476.19;5112440;28;20224;-75
2023/07/02 00:17:03;;;;;;;3.80;3.03;;;;;;;17.58;100.00;98473.47;5112655;28;20195;-75
2023/07/02 00:19:30;;;;;;;3.23;2.93;;;;;;;17.69;100.00;98474.13;5110999;28;20195;-75
2023/07/02 00:21:58;;;;;;;3.67;3.27;;;;;;;17.68;100.00;98472.53;5096721;28;20214;-75
2023/07/02 00:24:24;;;;;;;4.90;3.10;;;;;;;17.72;100.00;98470.03;5112426;28;20679;-77
2023/07/02 00:26:51;;;;;;;3.17;2.90;;;;;;;17.79;100.00;98481.28;5111050;28;20235;-74
2023/07/02 00:29:18;;;;;;;4.00;2.93;;;;;;;17.81;100.00;98470.97;5112572;28;20204;-74
2023/07/02 00:31:44;;;;;;;3.17;2.87;;;;;;;17.84;100.00;98470.38;5109775;28;20190;-75
2023/07/02 00:34:11;;;;;;;3.83;2.87;;;;;;;17.94;100.00;98472.94;5090846;28;20248;-75
2023/07/02 00:36:41;;;;;;;3.77;3.10;;;;;;;17.87;100.00;98472.53;5088165;28;20206;-76
2023/07/02 00:39:09;;;;;;;3.23;2.67;;;;;;;17.98;100.00;98472.03;5112169;28;20670;-75
2023/07/02 00:41:36;;;;;;;4.13;2.87;;;;;;;17.95;100.00;98477.25;5111898;28;20214;-74
2023/07/02 00:44:02;;;;;;;4.67;2.57;;;;;;;17.96;100.00;98474.22;5110860;28;20193;-74
2023/07/02 00:46:30;;;;;;;3.40;2.70;;;;;;;17.98;100.00;98476.66;5110734;28;20212;-74
2023/07/02 00:48:58;;;;;;;3.13;2.90;;;;;;;17.98;100.00;98476.66;5112483;28;20196;-75
2023/07/02 00:51:26;;;;;;;3.03;2.83;;;;;;;17.96;100.00;98474.22;5102996;28;20712;-76
2023/07/02 00:53:55;;;;;;;3.40;3.00;;;;;;;17.99;100.00;98475.56;5093108;28;20231;-76
2023/07/02 00:56:23;;;;;;;3.27;2.97;;;;;;;17.99;100.00;98478.28;5097244;28;20276;-75
2023/07/02 00:58:51;;;;;;;2.93;2.73;;;;;;;17.98;100.00;98477.47;5111591;28;20200;-75
2023/07/02 01:01:19;;;;;;;2.77;2.57;;;;;;;18.05;100.00;98474.41;5108821;28;20198;-75
2023/07/02 01:03:53;;;;;;;2.97;2.73;;;;;;;18.11;100.00;98483.22;5110981;28;20228;-76
2023/07/02 01:06:25;;;;;;;3.17;2.87;;;;;;;18.08;100.00;98481.91;5111608;28;20239;-76
2023/07/02 01:08:56;;;;;;;3.60;2.40;;;;;;;18.19;100.00;98483.38;5093543;28;20235;-74
2023/07/02 01:11:28;;;;;;;2.60;2.40;;;;;;;18.26;100.00;98478.34;5111877;28;20225;-75
2023/07/02 01:14:01;;;;;;;3.13;2.77;;;;;;;18.27;100.00;98471.84;5088565;28;20200;-75
2023/07/02 01:16:32;;;;;;;3.10;2.70;;;;;;;18.32;100.00;98479.09;5076808;28;20218;-75
2023/07/02 01:19:04;;;;;;;2.87;2.67;;;;;;;18.37;100.00;98471.66;5096434;28;20185;-75
2023/07/02 01:21:32;;;;;;;2.93;2.73;;;;;;;18.43;100.00;98477.78;5093763;28;20702;-75
2023/07/02 01:24:00;;;;;;;3.10;2.80;;;;;;;18.48;100.00;98469.56;5107126;28;20201;-75
2023/07/02 01:26:34;;;;;;;2.60;2.40;;;;;;;18.53;100.00;98469.50;5076774;28;20225;-77
2023/07/02 01:29:17;;;;;;;2.67;2.40;;;;;;;18.57;100.00;98469.72;5100067;28;20581;-75
2023/07/02 01:31:45;;;;;;;3.03;2.70;;;;;;;18.63;100.00;98472.03;5107252;28;20208;-75
2023/07/02 01:34:12;;;;;;;3.70;2.73;;;;;;;18.62;100.00;98470.41;5106181;28;20189;-75
2023/07/02 01:36:40;;;;;;;3.03;2.67;;;;;;;18.65;100.00;98472.56;5103276;28;20204;-74
2023/07/02 01:39:06;;;;;;;2.67;2.47;;;;;;;18.69;100.00;98470.03;5111698;28;20665;-75
2023/07/02 01:41:51;;;;;;;2.70;2.47;;;;;;;18.68;100.00;98477.38;5109251;28;20193;-76
2023/07/02 01:44:18;;;;;;;2.47;2.27;;;;;;;18.79;100.00;98476.09;5111824;28;20283;-74
2023/07/02 01:46:48;;;;;;;2.57;2.37;;;;;;;18.77;100.00;98467.44;5093374;28;20218;-75
2023/07/02 01:49:16;;;;;;;3.73;2.43;;;;;;;18.82;100.00;98471.94;5095087;28;20208;-75
2023/07/02 01:51:52;;;;;;;2.90;2.60;;;;;;;18.75;100.00;98468.84;5107178;28;20610;-75
2023/07/02 01:54:19;;;;;;;2.37;2.10;;;;;;;18.65;100.00;98472.56;5096651;28;20196;-75
2023/07/02 01:56:46;;;;;;;2.47;2.30;;;;;;;18.59;100.00;98464.78;5102248;28;20186;-75
2023/07/02 01:59:13;;;;;;;2.77;2.57;;;;;;;18.55;100.00;98471.94;5105118;28;20643;-75
2023/07/02 02:01:40;;;;;;;2.93;2.63;;;;;;;18.49;100.00;98463.84;5078417;28;20251;-75
2023/07/02 02:04:08;;;;;;;2.90;2.60;;;;;;;18.53;100.00;98468.66;5101041;28;20235;-77
2023/07/02 02:06:35;;;;;;;2.97;2.47;;;;;;;18.44;100.00;98461.22;5098713;28;20190;-78
2023/07/02 02:09:05;;;;;;;2.70;2.50;;;;;;;18.37;100.00;98468.16;5103574;28;20313;-75
2023/07/02 02:11:34;;;;;;;2.50;2.30;;;;;;;18.32;100.00;98469.03;5073082;28;20604;-75
2023/07/02 02:14:01;;;;;;;2.80;2.53;;;;;;;18.35;100.00;98468.44;5085910;28;20222;-75
2023/07/02 02:16:28;;;;;;;2.90;2.37;;;;;;;18.27;100.00;98468.31;5114639;28;20223;-75
2023/07/02 02:18:55;;;;;;;2.30;2.10;;;;;;;18.33;100.00;98472.56;5095332;28;20581;-75
2023/07/02 02:21:22;;;;;;;3.20;2.53;;;;;;;18.36;100.00;98477.38;5114971;28;20188;-75
2023/07/02 02:23:48;;;;;;;2.70;2.50;;;;;;;18.28;100.00;98476.16;5096427;28;20206;-75
2023/07/02 02:26:15;;;;;;;2.70;2.50;;;;;;;18.19;100.00;98483.38;5113110;28;20197;-76
2023/07/02 02:28:42;;;;;;;2.57;2.37;;;;;;;18.08;100.00;98481.91;5112123;28;20270;-75
2023/07/02 02:31:09;;;;;;;2.37;2.17;;;;;;;17.99;100.00;98484.50;5092897;28;20208;-75
2023/07/02 02:33:36;;;;;;;2.73;2.33;;;;;;;17.86;100.00;98477.13;5096089;28;20202;-74
2023/07/02 02:36:04;;;;;;;2.80;2.60;;;;;;;17.84;100.00;98492.06;5095285;28;20268;-75
2023/07/02 02:38:31;;;;;;;2.70;2.37;;;;;;;17.74;100.00;98493.00;5095927;28;20604;-75
2023/07/02 02:41:00;;;;;;;3.27;2.50;;;;;;;17.67;100.00;98491.78;5096051;28;20229;-75
2023/07/02 02:43:29;;;;;;;2.60;2.37;;;;;;;17.59;100.00;98491.31;5088021;28;20256;-78
2023/07/02 02:45:56;;;;;;;2.53;2.33;;;;;;;17.61;100.00;98491.03;5083505;28;20203;-77
2023/07/02 02:48:23;;;;;;;2.70;2.50;;;;;;;17.59;100.00;98493.22;5093802;28;20208;-75
2023/07/02 02:50:50;;;;;;;2.80;2.60;;;;;;;17.54;100.00;98493.28;5095218;28;20589;-74
2023/07/02 02:53:17;;;;;;;2.60;2.40;;;;;;;17.63;100.00;98491.56;5111187;28;20269;-76
2023/07/02 02:55:44;;;;;;;3.17;2.87;;;;;;;17.71;100.00;98495.50;5113803;28;20305;-75
2023/07/02 02:58:10;;;;;;;3.33;2.60;;;;;;;17.71;100.00;98492.78;5113668;28;20246;-75
2023/07/02 03:00:38;;;;;;;2.80;2.60;;;;;;;17.66;100.00;98493.66;5095468;28;20203;-75
2023/07/02 03:03:05;;;;;;;2.90;2.53;;;;;;;17.66;100.00;98498.28;5095191;28;20230;-74
2023/07/02 03:05:35;;;;;;;3.07;2.77;;;;;;;17.70;100.00;98493.88;5101753;28;20669;-75
2023/07/02 03:08:02;;;;;;;2.70;2.50;;;;;;;17.79;100.00;98492.13;5094277;28;20223;-75
2023/07/02 03:10:29;;;;;;;2.60;2.40;;;;;;;17.93;100.00;98496.50;5076915;28;20207;-74
2023/07/02 03:12:56;;;;;;;2.83;2.63;;;;;;;17.93;100.00;98509.25;5109552;28;20602;-76
2023/07/02 03:15:22;;;;;;;4.00;3.00;;;;;;;17.97;100.00;98499.44;5110105;28;20198;-75
2023/07/02 03:17:49;;;;;;;3.00;2.70;;;;;;;18.04;100.00;98502.59;5110402;28;20202;-76
2023/07/02 03:20:16;;;;;;;2.90;2.70;;;;;;;18.13;100.00;98508.13;5099092;28;20278;-75
2023/07/02 03:22:43;;;;;;;3.03;2.83;;;;;;;18.22;100.00;98506.34;5108864;28;20605;-74
2023/07/02 03:25:10;;;;;;;3.00;2.80;;;;;;;18.29;100.00;98507.56;5109757;28;20210;-76
2023/07/02 03:27:36;;;;;;;3.57;3.03;;;;;;;18.29;100.00;98510.28;5112918;28;20742;-77
2023/07/02 03:30:04;;;;;;;2.90;2.70;;;;;;;18.40;100.00;98510.94;5112911;28;20205;-74
2023/07/02 03:32:31;;;;;;;3.30;3.03;;;;;;;18.43;100.00;98516.56;5113271;28;20647;-75
2023/07/02 03:34:57;;;;;;;2.93;2.73;;;;;;;18.55;100.00;98502.56;5112689;28;20184;-74
2023/07/02 03:37:24;;;;;;;3.10;2.80;;;;;;;18.65;100.00;98512.44;5112689;28;20665;-75
2023/07/02 03:39:50;;;;;;;3.17;2.87;;;;;;;18.79;100.00;98505.13;5109708;28;20375;-75
2023/07/02 03:42:17;;;;;;;2.80;2.60;;;;;;;18.84;100.00;98507.75;5112122;28;20214;-75
2023/07/02 03:44:44;;;;;;;4.00;3.00;;;;;;;18.90;100.00;98512.75;5107027;28;20192;-74
2023/07/02 03:47:12;;;;;;;4.30;2.87;;;;;;;18.97;100.00;98517.00;5112230;28;20659;-75
2023/07/02 03:49:39;;;;;;;4.00;2.87;;;;;;;19.18;100.00;98513.56;5112503;28;20215;-75
2023/07/02 03:52:06;;;;;;;2.80;2.60;;;;;;;19.34;100.00;98514.88;5112249;28;20672;-74
2023/07/02 03:54:33;;;;;;;2.77;2.57;;;;;;;19.42;100.00;98520.69;5111460;28;20292;-74
2023/07/02 03:56:59;;;;;;;3.23;2.80;;;;;;;19.50;100.00;98515.41;5112624;28;20229;-75
2023/07/02 03:59:26;;;;;;;3.57;3.00;;;;;;;19.60;100.00;98526.03;5112560;28;20688;-75
2023/07/02 04:01:53;;;;;;;3.20;2.90;;;;;;;19.69;100.00;98520.69;5112688;28;20193;-75
2023/07/02 04:04:19;;;;;;;3.33;2.77;;;;;;;19.83;100.00;98524.16;5112781;28;20290;-76
2023/07/02 04:06:46;;;;;;;2.63;2.43;;;;;;;20.01;100.00;98527.84;5108773;28;20189;-76
2023/07/02 04:09:13;;;;;;;3.57;2.80;;;;;;;20.16;100.00;98532.91;5109964;28;20238;-75
2023/07/02 04:11:40;;;;;;;5.17;3.10;;;;;;;20.37;100.00;98531.34;5111742;28;20226;-74
2023/07/02 04:14:06;;;;;;;3.13;2.60;;;;;;;20.79;100.00;98537.34;5106611;28;20316;-76
2023/07/02 04:16:33;;;;;;;2.80;2.60;;;;;;;21.51;100.00;98537.81;5112288;28;20188;-75
2023/07/02 04:19:00;;;;;;;4.90;2.90;;;;;;;21.83;100.00;98542.84;5109547;28;20616;-75
2023/07/02 04:21:27;;;;;;;3.23;2.50;;;;;;;22.47;100.00;98550.41;5107591;28;20242;-75
2023/07/02 04:23:53;;;;;;;2.90;2.70;;;;;;;23.03;100.00;98557.53;5110647;28;20188;-75
2023/07/02 04:26:20;;;;;;;3.08;2.78;;;;;;;24.55;100.00;98564.31;5111033;28;20203;-75
2023/07/02 04:29:07;;;;;;;2.85;2.65;;;;;;;26.04;100.00;98557.47;5112197;28;20286;-74
2023/07/02 04:31:33;;;;;;;5.90;2.70;;;;;;;25.75;100.00;98553.91;5112159;28;20190;-76
2023/07/02 04:34:00;;;;;;;2.60;2.40;;;;;;;26.12;100.00;98553.81;5111027;28;20187;-76
2023/07/02 04:36:28;;;;;;;3.10;2.50;;;;;;;25.11;100.00;98555.69;5103581;28;20631;-74
2023/07/02 04:38:55;;;;;;;3.10;2.80;;;;;;;24.34;100.00;98570.94;5090207;28;20201;-75
2023/07/02 04:41:21;;;;;;;2.90;2.60;;;;;;;23.84;100.00;98568.25;5107353;28;20233;-76
2023/07/02 04:43:48;;;;;;;3.00;2.70;;;;;;;23.36;100.00;98569.47;5111318;28;20192;-74
2023/07/02 04:46:15;;;;;;;2.95;2.50;;;;;;;23.13;100.00;98577.09;5111161;28;20199;-76
2023/07/02 04:48:41;;;;;;;3.85;2.40;;;;;;;23.00;100.00;98572.66;5111854;28;20296;-75
2023/07/02 04:51:08;;;;;;;3.22;2.50;;;;;;;22.79;100.00;98569.00;5110028;28;20192;-75
2023/07/02 04:53:37;;;;;;;2.70;2.50;;;;;;;22.79;100.00;98580.72;5102174;28;20685;-75
2023/07/02 04:56:04;;;;;;;2.53;2.33;;;;;;;22.74;100.00;98583.63;5111116;28;20214;-75
2023/07/02 04:58:34;;;;;;;3.08;2.40;;;;;;;22.76;100.00;98592.31;5111715;28;20188;-75
2023/07/02 05:01:00;;;;;;;3.08;2.00;;;;;;;22.61;100.00;98586.50;5111064;28;20195;-74
2023/07/02 05:03:27;;;;;;;2.10;2.00;;;;;;;22.69;100.00;98593.88;5099504;28;20725;-75
2023/07/02 05:05:54;;;;;;;3.95;2.17;;;;;;;22.32;100.00;98598.09;5111167;28;20195;-75
2023/07/02 05:08:20;;;;;;;2.53;2.20;;;;;;;22.37;100.00;98589.75;5110706;28;20223;-76
2023/07/02 05:10:47;;;;;;;1.85;1.75;;;;;;;22.55;100.00;98590.53;5111174;28;20192;-75
2023/07/02 05:13:14;;;;;;;1.98;1.88;;;;;;;22.54;100.00;98592.44;5091971;28;20598;-75
2023/07/02 05:15:41;;;;;;;3.03;1.90;;;;;;;22.57;100.00;98594.56;5105338;28;20617;-75
2023/07/02 05:18:09;;;;;;;2.00;1.80;;;;;;;22.51;100.00;98604.03;5107127;28;20567;-74
2023/07/02 05:20:35;;;;;;;2.10;1.60;;;;;;;22.39;100.00;98599.22;5102327;28;20742;-74
2023/07/02 05:23:02;;;;;;;3.38;1.60;;;;;;;22.39;100.00;98610.16;5112997;28;20283;-76
2023/07/02 05:25:29;;;;;;;2.72;1.65;;;;;;;22.33;100.00;98605.16;5115739;28;20222;-75
2023/07/02 05:27:55;;;;;;;1.88;1.65;;;;;;;22.17;100.00;98596.63;5115717;28;20294;-75
2023/07/02 05:30:22;;;;;;;1.63;1.52;;;;;;;22.15;100.00;98600.81;5115647;28;20191;-74
2023/07/02 05:32:49;;;;;;;1.40;1.30;;;;;;;22.20;100.00;98606.13;5105824;28;20200;-75
2023/07/02 05:35:15;;;;;;;1.50;1.40;;;;;;;22.23;100.00;98619.91;5105581;28;20242;-75
2023/07/02 05:37:42;;;;;;;1.57;1.47;;;;;;;21.94;100.00;98604.16;5102523;28;20274;-74
2023/07/02 05:40:10;;;;;;;1.95;1.45;;;;;;;21.98;100.00;98620.69;5115465;28;20713;-74
2023/07/02 05:42:39;;;;;;;1.55;1.45;;;;;;;21.93;100.00;98618.09;5115488;28;20202;-74
2023/07/02 05:45:06;;;;;;;2.03;1.30;;;;;;;21.98;100.00;98614.44;5115552;28;20682;-74
2023/07/02 05:47:32;;;;;;;3.50;1.40;;;;;;;21.68;100.00;98619.63;5115595;28;20562;-74
2023/07/02 05:49:59;;;;;;;2.00;1.35;;;;;;;21.54;100.00;98616.22;5115086;28;20251;-74
2023/07/02 05:52:26;;;;;;;1.40;1.27;;;;;;;21.52;100.00;98621.16;5115295;28;20215;-75
2023/07/02 05:54:52;;;;;;;2.58;1.30;;;;;;;21.31;100.00;98623.66;5115425;28;20218;-74
2023/07/02 05:57:19;;;;;;;1.45;1.35;;;;;;;21.32;100.00;98613.56;5115174;28;20237;-75
2023/07/02 05:59:46;;;;;;;2.15;1.20;;;;;;;21.19;100.00;98620.69;5112444;28;20282;-74
2023/07/02 06:02:12;;;;;;;2.17;1.30;;;;;;;21.12;100.00;98638.59;5108137;28;20202;-74
2023/07/02 06:04:39;;;;;;;1.60;1.50;;;;;;;21.07;100.00;98636.81;5110714;28;20697;-73
2023/07/02 06:07:06;;;;;;;1.50;1.40;;;;;;;21.12;100.00;98642.13;5112418;28;20199;-74
2023/07/02 06:09:32;;;;;;;1.50;1.40;;;;;;;21.10;100.00;98644.34;5114231;28;20247;-74
2023/07/02 06:11:59;;;;;;;1.50;1.40;;;;;;;21.27;100.00;98658.09;5110256;28;20198;-74
2023/07/02 06:14:26;;;;;;;1.50;1.40;;;;;;;21.30;100.00;98668.38;5107091;28;20212;-75
2023/07/02 06:16:56;;;;;;;1.60;1.50;;;;;;;21.33;100.00;98666.91;5115104;28;20610;-75
2023/07/02 06:19:23;;;;;;;1.60;1.50;;;;;;;21.32;100.00;98665.34;5109269;28;20199;-75
2023/07/02 06:21:50;;;;;;;1.50;1.40;;;;;;;21.49;100.00;98670.84;5114822;28;20687;-73
2023/07/02 06:24:16;;;;;;;1.67;1.20;;;;;;;21.59;100.00;98675.22;5114538;28;20275;-74
2023/07/02 06:26:43;;;;;;;1.30;1.20;;;;;;;21.86;100.00;98666.81;5114738;28;20662;-75
2023/07/02 06:29:09;;;;;;;1.30;1.20;;;;;;;21.97;100.00;98675.56;5110608;28;20216;-75
2023/07/02 06:31:36;;;;;;;1.17;1.00;;;;;;;22.08;100.00;98677.66;5108978;28;20818;-74
2023/07/02 06:34:03;;;;;;;1.40;1.30;;;;;;;22.31;100.00;98687.31;5086233;28;20277;-75
2023/07/02 06:36:30;;;;;;;1.05;1.05;;;;;;;22.54;100.00;98692.63;5098848;28;20259;-74
2023/07/02 06:38:57;;;;;;;1.15;1.13;;;;;;;22.72;100.00;98692.34;5087832;28;20192;-74
2023/07/02 06:41:24;;;;;;;1.75;1.20;;;;;;;22.84;100.00;98691.72;5096581;28;20201;-74
2023/07/02 06:43:50;;;;;;;1.30;1.17;;;;;;;22.94;100.00;98687.84;5097521;28;20246;-75
2023/07/02 06:46:17;;;;;;;1.00;1.00;;;;;;;22.95;100.00;98687.53;5104606;28;20641;-76
2023/07/02 06:48:44;;;;;;;1.02;1.00;;;;;;;22.86;100.00;98684.03;5092437;28;20216;-75
2023/07/02 06:51:14;;;;;;;1.33;1.20;;;;;;;22.90;100.00;98678.72;5109221;28;20278;-75
2023/07/02 06:53:41;;;;;;;1.25;1.15;;;;;;;22.87;100.00;98680.13;5099886;28;20196;-75
2023/07/02 06:56:09;;;;;;;1.73;1.58;;;;;;;23.10;100.00;98680.75;5104558;28;20185;-74
2023/07/02 06:58:35;;;;;;;1.73;1.30;;;;;;;23.28;100.00;98685.84;5113651;28;20212;-74
2023/07/02 07:01:02;;;;;;;1.65;1.55;;;;;;;23.34;100.00;98686.47;5113375;28;20656;-74
2023/07/02 07:03:29;;;;;;;1.45;1.38;;;;;;;23.43;100.00;98681.78;5112907;28;20232;-74
2023/07/02 07:05:56;;;;;;;1.48;1.38;;;;;;;23.42;100.00;98674.75;5113036;28;20192;-74
2023/07/02 07:08:22;;;;;;;1.48;1.38;;;;;;;23.30;100.00;98677.34;5101471;28;20234;-75
2023/07/02 07:10:49;;;;;;;1.83;1.58;;;;;;;23.44;100.00;98671.66;5107416;28;20216;-74
2023/07/02 07:13:17;;;;;;;1.70;1.60;;;;;;;23.70;100.00;98673.19;5110121;28;20185;-75
2023/07/02 07:15:43;;;;;;;1.73;1.50;;;;;;;24.04;100.00;98665.94;5112482;28;20223;-74
2023/07/02 07:18:10;;;;;;;1.60;1.50;;;;;;;24.29;100.00;98666.94;5112987;28;20219;-75
2023/07/02 07:20:39;;;;;;;2.20;1.45;;;;;;;24.25;100.00;98668.75;5108785;28;20231;-75
2023/07/02 07:23:05;;;;;;;1.63;1.52;;;;;;;24.76;100.00;98665.63;5100423;28;20267;-74
2023/07/02 07:25:32;;;;;;;1.65;1.55;;;;;;;24.72;100.00;98661.94;5108552;28;20223;-75
2023/07/02 07:27:59;;;;;;;2.65;1.58;;;;;;;24.73;100.00;98670.97;5106180;28;20209;-75
2023/07/02 07:30:26;;;;;;;1.85;1.75;;;;;;;24.30;100.00;98669.38;5103936;28;20697;-75
2023/07/02 07:32:53;;;;;;;1.88;1.77;;;;;;;24.36;100.00;98664.47;5098689;28;20204;-74
2023/07/02 07:35:21;;;;;;;1.88;1.77;;;;;;;24.11;100.00;98678.00;5084375;28;20195;-74
2023/07/02 07:37:48;;;;;;;2.10;1.50;;;;;;;24.13;100.00;98670.22;5102564;28;20188;-74
2023/07/02 07:40:15;;;;;;;4.20;1.80;;;;;;;23.83;100.00;98681.53;5107273;28;20265;-74
2023/07/02 07:42:44;;;;;;;2.13;1.98;;;;;;;23.87;100.00;98679.72;5104751;28;20603;-75
2023/07/02 07:45:11;;;;;;;1.77;1.67;;;;;;;23.98;100.00;98678.22;5096934;28;20197;-74
2023/07/02 07:47:39;;;;;;;2.47;2.30;;;;;;;23.97;100.00;98680.16;5098587;28;20208;-74
2023/07/02 07:50:10;;;;;;;2.53;2.00;;;;;;;23.90;100.00;98692.72;5079192;28;20200;-74
2023/07/02 07:52:40;;;;;;;2.22;2.03;;;;;;;24.18;100.00;98693.91;5102900;28;20230;-74
2023/07/02 07:55:07;;;;;;;2.08;1.98;;;;;;;24.26;100.00;98700.47;5112723;28;20229;-74
2023/07/02 07:57:34;;;;;;;2.58;2.08;;;;;;;24.51;100.00;98694.00;5111098;28;20200;-75
2023/07/02 08:00:04;;;;;;;2.22;2.03;;;;;;;24.62;100.00;98703.44;5108313;28;20199;-74
2023/07/02 08:02:42;;;;;;;2.97;2.15;;;;;;;24.47;100.00;98704.03;5112209;28;20276;-75
2023/07/02 08:05:09;;;;;;;2.22;1.92;;;;;;;24.35;100.00;98702.03;5107749;28;20310;-74
2023/07/02 08:07:36;;;;;;;2.13;2.00;;;;;;;24.10;100.00;98700.19;5112531;28;20212;-74
2023/07/02 08:10:03;;;;;;;2.13;1.90;;;;;;;24.19;100.00;98697.44;5110032;28;20234;-75
2023/07/02 08:12:29;;;;;;;4.05;2.70;;;;;;;24.08;100.00;98694.25;5107857;28;20261;-74
2023/07/02 08:14:56;;;;;;;2.63;2.42;;;;;;;24.29;100.00;98691.59;5111135;28;20199;-75
2023/07/02 08:17:23;;;;;;;2.25;2.05;;;;;;;24.22;100.00;98683.88;5089640;28;20191;-74
2023/07/02 08:19:50;;;;;;;2.75;2.55;;;;;;;24.20;100.00;98688.09;5105152;28;20665;-74
2023/07/02 08:22:16;;;;;;;2.30;2.10;;;;;;;24.20;100.00;98679.91;5096773;28;20320;-74
2023/07/02 08:24:43;;;;;;;2.25;2.13;;;;;;;24.42;100.00;98682.31;5095156;28;20221;-74
2023/07/02 08:27:13;;;;;;;2.22;2.10;;;;;;;24.59;100.00;98676.69;5088859;28;20753;-75
2023/07/02 08:29:40;;;;;;;2.40;2.20;;;;;;;24.72;100.00;98672.09;5103526;28;20302;-76
2023/07/02 08:32:07;;;;;;;2.10;1.90;;;;;;;24.90;100.00;98668.09;5103156;28;20207;-74
2023/07/02 08:34:34;;;;;;;1.95;1.85;;;;;;;25.05;100.00;98672.16;5093201;28;20192;-74
2023/07/02 08:37:00;;;;;;;1.90;1.80;;;;;;;25.08;100.00;98674.19;5090608;28;20224;-75
2023/07/02 08:39:27;;;;;;;2.10;1.90;;;;;;;25.06;100.00;98671.78;5106235;28;20640;-75
2023/07/02 08:41:53;;;;;;;2.03;1.92;;;;;;;24.85;100.00;98673.75;5096097;28;20192;-75
2023/07/02 08:44:21;;;;;;;2.13;1.92;;;;;;;25.08;100.00;98675.00;5093029;28;20188;-75
2023/07/02 08:46:50;;;;;;;2.55;1.90;;;;;;;25.07;100.00;98676.13;5097133;28;20199;-75
2023/07/02 08:49:17;;;;;;;2.72;1.90;;;;;;;25.30;100.00;98687.50;5080565;28;20239;-76
2023/07/02 08:51:45;;;;;;;1.90;1.80;;;;;;;25.37;100.00;98688.56;5098861;28;20675;-75
2023/07/02 08:54:12;;;;;;;2.63;1.90;;;;;;;25.34;100.00;98694.72;5103878;28;20187;-75
2023/07/02 08:56:39;;;;;;;2.63;1.70;;;;;;;25.43;100.00;98691.88;5090635;28;20190;-76
2023/07/02 08:59:09;;;;;;;1.80;1.70;;;;;;;25.63;100.00;98690.22;5084817;28;20220;-75
2023/07/02 09:01:54;;;;;;;2.00;1.83;;;;;;;25.76;97.81;98695.38;5091778;28;20250;-74
2023/07/02 09:04:25;;;;;;;2.05;1.67;;;;;;;26.00;98.51;98691.84;5105737;28;20235;-75
2023/07/02 09:07:05;;;;;;;2.78;2.03;;;;;;;26.61;98.62;98691.78;5077468;28;20196;-75
2023/07/02 09:09:33;;;;;;;2.08;1.98;;;;;;;27.14;94.22;98682.34;5098745;28;20215;-77
2023/07/02 09:12:00;;;;;;;2.00;1.90;;;;;;;27.83;90.94;98679.06;5111459;28;20206;-76
2023/07/02 09:14:29;;;;;;;2.42;1.85;;;;;;;28.23;87.19;98689.84;5107027;28;20184;-78
2023/07/02 09:17:08;;;;;;;1.92;1.83;;;;;;;28.30;83.70;98680.97;5098359;28;20191;-78
2023/07/02 09:19:36;;;;;;;2.25;2.15;;;;;;;28.70;83.24;98673.19;5098461;28;20199;-77
2023/07/02 09:22:03;;;;;;;1.90;1.80;;;;;;;28.84;80.34;98675.47;5107670;28;20188;-76
2023/07/02 09:24:31;;;;;;;2.17;2.00;;;;;;;28.49;79.40;98674.69;5099375;28;20250;-77
2023/07/02 09:26:59;;;;;;;2.03;1.92;;;;;;;28.43;80.62;98674.97;5098724;28;20192;-77
2023/07/02 09:29:31;;;;;;;2.13;2.03;;;;;;;27.83;82.23;98686.50;5101069;28;20216;-77
2023/07/02 09:32:00;;;;;;;2.20;2.05;;;;;;;27.94;81.74;98684.84;5086091;28;20196;-77
2023/07/02 09:34:40;;;;;;;2.38;2.17;;;;;;;28.29;83.41;98684.88;5105425;28;20184;-77
2023/07/02 09:37:07;;;;;;;2.20;2.10;;;;;;;28.44;80.16;98689.56;5096054;28;20658;-77
2023/07/02 09:39:35;;;;;;;2.20;1.77;;;;;;;28.51;79.23;98695.22;5110331;28;20223;-77
2023/07/02 09:42:06;;;;;;;2.20;2.00;;;;;;;28.46;78.82;98699.03;5109761;28;20192;-77
2023/07/02 09:44:34;;;;;;;2.15;2.00;;;;;;;28.13;79.93;98697.91;5096264;28;20654;-77
2023/07/02 09:47:05;;;;;;;2.40;2.10;;;;;;;28.65;79.68;98703.00;5111074;28;20671;-77
2023/07/02 09:49:36;;;;;;;2.70;2.50;;;;;;;29.03;79.48;98699.47;5110889;28;20211;-76
2023/07/02 09:52:06;;;;;;;3.50;3.30;;;;;;;29.01;78.34;98702.59;5109374;28;20245;-75
2023/07/02 09:54:33;;;;;;;2.75;2.20;;;;;;;28.83;78.60;98715.25;5094564;28;20195;-77
2023/07/02 09:57:01;;;;;;;2.00;1.90;;;;;;;28.55;77.29;98712.63;5105728;28;20191;-77
2023/07/02 09:59:28;;;;;;;2.42;2.03;;;;;;;28.00;77.18;98714.47;5082274;28;20223;-76
2023/07/02 10:01:55;;;;;;;2.35;2.00;;;;;;;28.22;76.66;98724.09;5110951;28;20191;-76
2023/07/02 10:04:25;;;;;;;2.03;1.90;;;;;;;28.37;75.19;98723.25;5109150;28;20224;-76
2023/07/02 10:06:53;;;;;;;2.10;2.00;;;;;;;28.02;75.80;98723.19;5111068;28;20297;-76
2023/07/02 10:09:21;;;;;;;2.10;2.00;;;;;;;28.28;74.77;98739.16;5094466;28;20728;-76
2023/07/02 10:11:48;;;;;;;1.92;1.70;;;;;;;28.69;74.60;98734.19;5110121;28;20196;-76
2023/07/02 10:14:14;;;;;;;1.88;1.77;;;;;;;28.38;73.06;98729.56;5107559;28;20220;-78
2023/07/02 10:16:50;;;;;;;3.15;1.92;;;;;;;28.30;73.64;98742.38;5097828;28;20184;-78
2023/07/02 10:19:17;;;;;;;2.33;2.17;;;;;;;28.25;72.66;98734.38;5094285;28;20192;-76
2023/07/02 10:21:49;;;;;;;2.25;1.73;;;;;;;28.19;71.83;98744.06;5106470;28;20218;-77
2023/07/02 10:24:17;;;;;;;2.05;1.95;;;;;;;28.22;71.74;98740.63;5106085;28;20241;-76
2023/07/02 10:26:58;;;;;;;2.20;2.00;;;;;;;28.29;71.96;98735.25;5101186;28;20270;-76
2023/07/02 10:29:25;;;;;;;2.08;1.95;;;;;;;28.30;72.09;98738.81;5081594;28;20202;-76
2023/07/02 10:31:56;;;;;;;2.42;2.22;;;;;;;28.21;73.84;98743.72;5112313;28;20199;-76
2023/07/02 10:34:30;;;;;;;2.50;2.30;;;;;;;28.15;71.66;98750.63;5104667;28;20624;-76
2023/07/02 10:36:57;;;;;;;3.35;2.10;;;;;;;28.13;71.73;98751.03;5091535;28;20197;-76
2023/07/02 10:39:24;;;;;;;2.53;2.20;;;;;;;28.36;71.30;98746.47;5103900;28;20196;-75
2023/07/02 10:41:51;;;;;;;2.30;2.10;;;;;;;28.61;71.20;98741.50;5111628;28;20695;-76
2023/07/02 10:44:17;;;;;;;1.90;1.80;;;;;;;28.39;70.70;98742.97;5095970;28;20204;-76
2023/07/02 10:46:48;;;;;;;2.45;1.98;;;;;;;28.49;70.40;98738.06;5107484;28;20270;-76
2023/07/02 10:49:17;;;;;;;2.30;2.10;;;;;;;28.46;70.83;98740.38;5105133;28;20204;-77
2023/07/02 10:51:44;;;;;;;2.15;2.00;;;;;;;28.97;70.90;98748.63;5098661;28;20606;-76
2023/07/02 10:54:11;;;;;;;2.22;2.03;;;;;;;29.06;69.80;98753.91;5099010;28;20200;-76
2023/07/02 10:56:37;;;;;;;2.47;2.15;;;;;;;28.91;69.82;98741.78;5102354;28;20201;-76
2023/07/02 10:59:04;;;;;;;2.30;1.98;;;;;;;29.01;68.46;98740.41;5103205;28;20192;-76
2023/07/02 11:01:31;;;;;;;1.92;1.80;;;;;;;28.87;68.12;98724.38;5080354;28;20290;-77
2023/07/02 11:04:04;;;;;;;3.58;2.13;;;;;;;29.13;67.71;98732.78;5107239;28;20254;-76
2023/07/02 11:06:32;;;;;;;2.17;1.98;;;;;;;28.99;68.35;98721.47;5103387;28;20337;-77
2023/07/02 11:08:59;;;;;;;2.33;1.98;;;;;;;29.61;67.48;98717.56;5082208;28;20219;-75
2023/07/02 11:11:26;;;;;;;2.25;2.05;;;;;;;29.69;67.19;98708.25;5097448;28;20228;-75
2023/07/02 11:13:53;;;;;;;2.30;2.10;;;;;;;30.37;66.85;98712.91;5101623;28;20302;-76
2023/07/02 11:16:26;;;;;;;2.28;2.05;;;;;;;30.61;65.27;98715.25;5113080;28;20191;-77
2023/07/02 11:18:54;;;;;;;3.10;2.55;;;;;;;30.68;66.78;98725.63;5092240;28;20181;-77
2023/07/02 11:21:21;;;;;;;2.60;2.40;;;;;;;30.32;64.60;98720.72;5102248;28;20658;-75
2023/07/02 11:23:47;;;;;;;2.13;1.92;;;;;;;30.15;63.52;98713.75;5112820;28;20498;-77
2023/07/02 11:26:14;;;;;;;2.42;2.22;;;;;;;30.26;63.66;98731.28;5112189;28;20230;-76
2023/07/02 11:28:50;;;;;;;2.92;2.00;;;;;;;30.50;63.69;98728.13;5092721;28;20192;-78
2023/07/02 11:31:25;;;;;;;3.45;2.10;;;;;;;31.22;62.67;98718.78;5084675;28;20216;-77